Time;durP1;ratioP1;P1;durP2;ratioP2;P2;SDS_P1;SDS_P2;PMS_P1;PMS_P2;Temp;Humidity;BMP_temperature;BMP_pressure;BME280_temperature;BME280_humidity;BME280_pressure;Samples;Min_cycle;Max_cycle;Signal;HPM_P1;HPM_P2
2022/06/27 00:01:59;;;;;;;2.65;1.38;;;;;;;;;;4963159;28;20146;-66
2022/06/27 00:04:25;;;;;;;3.58;1.25;;;;;;;;;;4953025;28;20055;-66
2022/06/27 00:06:52;;;;;;;2.33;1.35;;;;;;;;;;4963884;28;20129;-66
2022/06/27 00:09:19;;;;;;;2.90;1.60;;;;;;;;;;4949351;28;20059;-66
2022/06/27 00:11:47;;;;;;;5.25;1.38;;;;;;;;;;4944373;28;20065;-67
2022/06/27 00:14:13;;;;;;;7.38;1.25;;;;;;;;;;4956166;28;20063;-66
2022/06/27 00:16:40;;;;;;;3.15;1.40;;;;;;;;;;4949449;29;20062;-66
2022/06/27 00:19:06;;;;;;;4.07;1.70;;;;;;;;;;4961973;28;20297;-67
2022/06/27 00:21:33;;;;;;;4.65;1.83;;;;;;;;;;4947821;29;20051;-66
2022/06/27 00:24:00;;;;;;;3.83;1.63;;;;;;;;;;4948304;28;20086;-66
2022/06/27 00:26:27;;;;;;;2.17;1.23;;;;;;;;;;4949220;28;20055;-66
2022/06/27 00:28:56;;;;;;;5.90;1.85;;;;;;;;;;4957958;28;20059;-66
2022/06/27 00:31:22;;;;;;;4.18;1.65;;;;;;;;;;4968697;28;20051;-66
2022/06/27 00:33:49;;;;;;;6.82;2.08;;;;;;;;;;4952305;28;20058;-65
2022/06/27 00:36:15;;;;;;;6.47;1.80;;;;;;;;;;4949124;28;20066;-66
2022/06/27 00:38:43;;;;;;;5.20;1.50;;;;;;;;;;4960753;28;20121;-66
2022/06/27 00:41:09;;;;;;;3.08;1.45;;;;;;;;;;4952519;28;20105;-66
2022/06/27 00:43:36;;;;;;;3.10;1.67;;;;;;;;;;4956109;28;20055;-66
2022/06/27 00:46:04;;;;;;;5.40;1.27;;;;;;;;;;4933295;29;20055;-66
2022/06/27 00:48:31;;;;;;;3.88;1.50;;;;;;;;;;4944852;28;20156;-67
2022/06/27 00:50:58;;;;;;;5.80;2.10;;;;;;;;;;4933047;29;20062;-66
2022/06/27 00:53:25;;;;;;;6.15;1.75;;;;;;;;;;4951874;28;20098;-66
2022/06/27 00:55:52;;;;;;;3.50;1.60;;;;;;;;;;4938837;29;20063;-66
2022/06/27 00:58:19;;;;;;;2.33;1.17;;;;;;;;;;4964438;28;20062;-66
2022/06/27 01:00:46;;;;;;;2.38;1.33;;;;;;;;;;4959569;28;20055;-66
2022/06/27 01:03:15;;;;;;;4.28;1.40;;;;;;;;;;4948219;29;20055;-66
2022/06/27 01:05:51;;;;;;;3.40;1.50;;;;;;;;;;4926704;28;20055;-66
2022/06/27 01:08:18;;;;;;;2.88;1.33;;;;;;;;;;4935718;29;20051;-66
2022/06/27 01:10:45;;;;;;;6.15;1.58;;;;;;;;;;4945422;28;20062;-66
2022/06/27 01:13:12;;;;;;;3.83;1.70;;;;;;;;;;4948469;29;20055;-66
2022/06/27 01:15:39;;;;;;;3.33;1.33;;;;;;;;;;4942731;29;20055;-66
2022/06/27 01:18:07;;;;;;;3.40;1.48;;;;;;;;;;4948604;29;20059;-66
2022/06/27 01:20:35;;;;;;;5.70;2.00;;;;;;;;;;4943170;28;20063;-66
2022/06/27 01:23:04;;;;;;;6.22;1.77;;;;;;;;;;4964780;28;20059;-66
2022/06/27 01:25:31;;;;;;;5.28;1.38;;;;;;;;;;4964001;28;20051;-66
2022/06/27 01:27:58;;;;;;;2.03;1.23;;;;;;;;;;4958941;28;20079;-66
2022/06/27 01:30:24;;;;;;;2.47;1.33;;;;;;;;;;4948387;29;20059;-66
2022/06/27 01:32:51;;;;;;;4.80;1.55;;;;;;;;;;4942043;28;20059;-66
2022/06/27 01:35:17;;;;;;;4.45;1.40;;;;;;;;;;4948405;29;20079;-66
2022/06/27 01:37:44;;;;;;;3.58;1.50;;;;;;;;;;4942253;28;20063;-66
2022/06/27 01:40:12;;;;;;;3.55;1.40;;;;;;;;;;4948581;29;20055;-66
2022/06/27 01:42:39;;;;;;;2.03;1.30;;;;;;;;;;4961800;28;20061;-66
2022/06/27 01:45:06;;;;;;;2.85;1.55;;;;;;;;;;4945162;29;20047;-67
2022/06/27 01:47:32;;;;;;;3.67;1.60;;;;;;;;;;4948502;29;20059;-66
2022/06/27 01:49:59;;;;;;;2.58;1.38;;;;;;;;;;4942153;28;20050;-66
2022/06/27 01:52:28;;;;;;;2.92;1.25;;;;;;;;;;4951088;28;20058;-66
2022/06/27 01:54:55;;;;;;;3.30;1.55;;;;;;;;;;4957905;28;20062;-66
2022/06/27 01:57:23;;;;;;;5.18;1.92;;;;;;;;;;4959649;28;20042;-66
2022/06/27 01:59:50;;;;;;;3.75;2.05;;;;;;;;;;4962235;28;20117;-66
2022/06/27 02:02:17;;;;;;;2.65;1.45;;;;;;;;;;4966746;28;20054;-66
2022/06/27 02:04:44;;;;;;;3.97;1.63;;;;;;;;;;4950936;28;20050;-66
2022/06/27 02:07:12;;;;;;;3.97;1.40;;;;;;;;;;4945501;28;20105;-66
2022/06/27 02:09:39;;;;;;;4.47;1.65;;;;;;;;;;4949139;28;20039;-66
2022/06/27 02:12:19;;;;;;;3.95;1.92;;;;;;;;;;4945427;28;20102;-66
2022/06/27 02:14:48;;;;;;;3.53;1.60;;;;;;;;;;4951134;28;20088;-66
2022/06/27 02:17:15;;;;;;;2.28;1.35;;;;;;;;;;4945443;28;20059;-65
2022/06/27 02:19:42;;;;;;;2.55;1.33;;;;;;;;;;4953506;28;20085;-66
2022/06/27 02:22:09;;;;;;;3.30;1.50;;;;;;;;;;4947404;28;21370;-66
2022/06/27 02:24:35;;;;;;;2.90;1.50;;;;;;;;;;4935673;29;20118;-66
2022/06/27 02:27:02;;;;;;;5.10;1.52;;;;;;;;;;4948408;28;20070;-66
2022/06/27 02:29:29;;;;;;;2.50;1.23;;;;;;;;;;4969560;28;20058;-66
2022/06/27 02:31:59;;;;;;;3.00;1.38;;;;;;;;;;4970498;28;20055;-66
2022/06/27 02:34:25;;;;;;;7.15;1.92;;;;;;;;;;4964982;28;20063;-66
2022/06/27 02:36:52;;;;;;;44.30;3.40;;;;;;;;;;4970618;28;20058;-66
2022/06/27 02:39:23;;;;;;;9.82;2.25;;;;;;;;;;4965593;28;20055;-66
2022/06/27 02:41:52;;;;;;;9.57;1.95;;;;;;;;;;4971091;28;20062;-66
2022/06/27 02:44:19;;;;;;;3.50;1.77;;;;;;;;;;4975198;28;20066;-66
2022/06/27 02:46:47;;;;;;;4.00;1.47;;;;;;;;;;4970719;28;20112;-66
2022/06/27 02:49:15;;;;;;;4.50;1.75;;;;;;;;;;4949395;28;20302;-66
2022/06/27 02:51:42;;;;;;;2.15;1.40;;;;;;;;;;4970581;28;20059;-66
2022/06/27 02:54:10;;;;;;;4.03;1.45;;;;;;;;;;4961550;28;20142;-66
2022/06/27 02:56:41;;;;;;;3.92;1.52;;;;;;;;;;4935199;29;20162;-66
2022/06/27 02:59:10;;;;;;;5.97;1.80;;;;;;;;;;4936603;28;20066;-66
2022/06/27 03:01:38;;;;;;;4.38;2.05;;;;;;;;;;4954635;28;20139;-66
2022/06/27 03:04:05;;;;;;;4.80;1.85;;;;;;;;;;4948511;28;20055;-65
2022/06/27 03:06:33;;;;;;;2.78;1.40;;;;;;;;;;4970090;28;20058;-65
2022/06/27 03:09:00;;;;;;;6.22;1.58;;;;;;;;;;4964163;28;20062;-65
2022/06/27 03:11:26;;;;;;;4.13;1.55;;;;;;;;;;4970503;28;20088;-66
2022/06/27 03:13:54;;;;;;;5.22;1.67;;;;;;;;;;4965196;28;20051;-66
2022/06/27 03:16:21;;;;;;;2.10;1.23;;;;;;;;;;4934722;29;20055;-65
2022/06/27 03:18:48;;;;;;;2.75;1.38;;;;;;;;;;4934607;29;20066;-65
2022/06/27 03:21:17;;;;;;;6.13;1.73;;;;;;;;;;4934982;28;20055;-66
2022/06/27 03:23:47;;;;;;;3.08;1.70;;;;;;;;;;4936154;29;20051;-65
2022/06/27 03:26:13;;;;;;;3.60;1.58;;;;;;;;;;4930308;28;20078;-65
2022/06/27 03:28:40;;;;;;;5.85;1.90;;;;;;;;;;4934237;28;20059;-65
2022/06/27 03:31:06;;;;;;;4.95;1.50;;;;;;;;;;4930423;28;20055;-65
2022/06/27 03:33:33;;;;;;;3.22;1.50;;;;;;;;;;4934259;29;20058;-65
2022/06/27 03:35:59;;;;;;;4.22;1.60;;;;;;;;;;4930492;28;20055;-65
2022/06/27 03:38:26;;;;;;;2.70;1.58;;;;;;;;;;4934079;29;20055;-65
2022/06/27 03:40:54;;;;;;;2.55;1.40;;;;;;;;;;4953195;28;20062;-65
2022/06/27 03:43:21;;;;;;;2.05;1.30;;;;;;;;;;4969449;28;20047;-65
2022/06/27 03:45:47;;;;;;;2.60;1.30;;;;;;;;;;4964579;28;20070;-65
2022/06/27 03:49:59;;;;;;;2.17;1.27;;;;;;;;;;4969070;28;20141;-65
2022/06/27 03:50:59;;;;;;;2.38;1.45;;;;;;;;;;4958777;28;20051;-66
2022/06/27 03:53:26;;;;;;;1.92;1.25;;;;;;;;;;4933830;29;20057;-65
2022/06/27 03:55:54;;;;;;;3.83;1.60;;;;;;;;;;4945482;28;20098;-65
2022/06/27 03:58:20;;;;;;;3.80;1.50;;;;;;;;;;4949813;28;20054;-65
2022/06/27 04:00:47;;;;;;;5.10;1.77;;;;;;;;;;4946125;28;20059;-65
2022/06/27 04:03:14;;;;;;;3.47;1.60;;;;;;;;;;4954701;28;20047;-65
2022/06/27 04:05:40;;;;;;;2.35;1.20;;;;;;;;;;4960815;28;20049;-65
2022/06/27 04:08:08;;;;;;;2.72;1.40;;;;;;;;;;4952314;28;20080;-66
2022/06/27 04:10:35;;;;;;;3.53;1.60;;;;;;;;;;4954722;28;20157;-66
2022/06/27 04:13:03;;;;;;;2.25;1.50;;;;;;;;;;4946967;28;20046;-65
2022/06/27 04:15:29;;;;;;;4.88;1.48;;;;;;;;;;4953015;28;20058;-65
2022/06/27 04:17:56;;;;;;;3.33;1.20;;;;;;;;;;4948295;28;20051;-66
2022/06/27 04:20:24;;;;;;;2.70;1.50;;;;;;;;;;4949830;28;20047;-65
2022/06/27 04:22:51;;;;;;;3.55;1.42;;;;;;;;;;4962769;28;20119;-65
2022/06/27 04:25:17;;;;;;;3.95;1.60;;;;;;;;;;4952492;28;20129;-65
2022/06/27 04:27:44;;;;;;;4.38;1.60;;;;;;;;;;4952542;28;20062;-66
2022/06/27 04:30:16;;;;;;;4.13;1.70;;;;;;;;;;4946635;28;20058;-65
2022/06/27 04:32:43;;;;;;;4.03;1.60;;;;;;;;;;4952373;28;20133;-65
2022/06/27 04:35:10;;;;;;;2.95;1.42;;;;;;;;;;4946258;28;20050;-65
2022/06/27 04:37:40;;;;;;;4.32;1.85;;;;;;;;;;4952101;28;20054;-65
2022/06/27 04:40:07;;;;;;;5.13;1.50;;;;;;;;;;4962395;28;20082;-65
2022/06/27 04:42:34;;;;;;;6.60;1.50;;;;;;;;;;4951425;28;20165;-65
2022/06/27 04:45:01;;;;;;;3.72;1.58;;;;;;;;;;4948057;28;20112;-65
2022/06/27 04:47:29;;;;;;;3.42;1.85;;;;;;;;;;4967530;28;20051;-65
2022/06/27 04:49:56;;;;;;;3.72;1.80;;;;;;;;;;4952421;28;20055;-65
2022/06/27 04:52:22;;;;;;;2.60;1.30;;;;;;;;;;4937505;28;20061;-65
2022/06/27 04:54:49;;;;;;;4.78;1.70;;;;;;;;;;4953334;28;20101;-64
2022/06/27 04:57:16;;;;;;;3.97;1.98;;;;;;;;;;4943984;28;20059;-65
2022/06/27 04:59:44;;;;;;;5.50;2.33;;;;;;;;;;4953829;28;20055;-65
2022/06/27 05:02:10;;;;;;;5.38;1.60;;;;;;;;;;4958235;28;20078;-65
2022/06/27 05:04:38;;;;;;;5.53;2.00;;;;;;;;;;4967339;28;20061;-65
2022/06/27 05:07:05;;;;;;;3.47;1.55;;;;;;;;;;4966404;28;20138;-65
2022/06/27 05:09:32;;;;;;;5.30;2.13;;;;;;;;;;4941424;28;20059;-65
2022/06/27 05:11:58;;;;;;;5.30;1.90;;;;;;;;;;4966746;28;20055;-65
2022/06/27 05:14:25;;;;;;;2.47;1.40;;;;;;;;;;4957974;28;20055;-65
2022/06/27 05:16:51;;;;;;;7.32;2.85;;;;;;;;;;4950385;28;20062;-65
2022/06/27 05:19:19;;;;;;;4.90;1.75;;;;;;;;;;4940744;28;20059;-65
2022/06/27 05:21:47;;;;;;;7.38;2.60;;;;;;;;;;4949465;28;20129;-65
2022/06/27 05:24:15;;;;;;;4.95;1.85;;;;;;;;;;4961125;28;20050;-65
2022/06/27 05:26:41;;;;;;;5.03;2.40;;;;;;;;;;4965942;28;20051;-65
2022/06/27 05:29:08;;;;;;;4.43;2.17;;;;;;;;;;4965311;28;20050;-65
2022/06/27 05:31:34;;;;;;;4.93;2.08;;;;;;;;;;4944779;28;20117;-65
2022/06/27 05:34:01;;;;;;;3.92;2.00;;;;;;;;;;4966301;28;20317;-65
2022/06/27 05:36:27;;;;;;;5.93;2.05;;;;;;;;;;4943889;28;20078;-65
2022/06/27 05:38:56;;;;;;;8.18;2.67;;;;;;;;;;4949856;28;20126;-65
2022/06/27 05:41:23;;;;;;;7.82;2.28;;;;;;;;;;4959257;28;20050;-65
2022/06/27 05:43:50;;;;;;;4.05;2.05;;;;;;;;;;4967629;28;20141;-65
2022/06/27 05:46:19;;;;;;;3.95;2.05;;;;;;;;;;4933461;29;20054;-65
2022/06/27 05:48:46;;;;;;;8.27;2.15;;;;;;;;;;4932575;29;20051;-65
2022/06/27 05:51:13;;;;;;;6.27;2.33;;;;;;;;;;4937315;28;20055;-65
2022/06/27 05:53:40;;;;;;;2.85;1.58;;;;;;;;;;4970192;28;20050;-65
2022/06/27 05:56:08;;;;;;;5.63;1.95;;;;;;;;;;4949152;28;20046;-65
2022/06/27 05:58:37;;;;;;;3.42;1.77;;;;;;;;;;4955326;28;20056;-65
2022/06/27 06:01:04;;;;;;;3.95;1.98;;;;;;;;;;4950126;28;20083;-65
2022/06/27 06:03:31;;;;;;;3.97;1.30;;;;;;;;;;4968215;28;20150;-65
2022/06/27 06:05:58;;;;;;;5.38;2.15;;;;;;;;;;4941702;28;20062;-65
2022/06/27 06:08:25;;;;;;;8.20;3.67;;;;;;;;;;4950312;28;20063;-65
2022/06/27 06:10:53;;;;;;;10.70;3.63;;;;;;;;;;4953101;28;20101;-65
2022/06/27 06:13:21;;;;;;;10.02;3.67;;;;;;;;;;4961447;28;20059;-65
2022/06/27 06:15:48;;;;;;;4.95;2.75;;;;;;;;;;4969231;28;20058;-65
2022/06/27 06:18:17;;;;;;;13.52;3.30;;;;;;;;;;4942090;28;20508;-65
2022/06/27 06:20:44;;;;;;;4.55;1.70;;;;;;;;;;4952532;28;20074;-65
2022/06/27 06:23:11;;;;;;;14.23;3.83;;;;;;;;;;4942552;28;20078;-65
2022/06/27 06:25:38;;;;;;;6.45;3.35;;;;;;;;;;4970839;28;20066;-65
2022/06/27 06:28:05;;;;;;;8.80;3.83;;;;;;;;;;4950230;28;20117;-65
2022/06/27 06:30:33;;;;;;;8.77;3.97;;;;;;;;;;4946340;28;20055;-65
2022/06/27 06:33:02;;;;;;;5.38;2.25;;;;;;;;;;4952640;28;20065;-65
2022/06/27 06:35:32;;;;;;;4.78;2.03;;;;;;;;;;4955899;28;20050;-65
2022/06/27 06:37:59;;;;;;;6.35;1.70;;;;;;;;;;4968546;28;20129;-65
2022/06/27 06:40:27;;;;;;;7.63;2.65;;;;;;;;;;4944583;28;20051;-65
2022/06/27 06:42:54;;;;;;;7.20;3.65;;;;;;;;;;4969703;28;20134;-65
2022/06/27 06:45:21;;;;;;;10.07;3.85;;;;;;;;;;4944674;28;20050;-65
2022/06/27 06:47:55;;;;;;;3.95;1.98;;;;;;;;;;4969337;28;20047;-65
2022/06/27 06:50:22;;;;;;;10.15;3.78;;;;;;;;;;4968965;28;20092;-65
2022/06/27 06:52:50;;;;;;;8.25;3.10;;;;;;;;;;4960239;28;20109;-65
2022/06/27 06:55:17;;;;;;;2.72;1.60;;;;;;;;;;4953165;28;20064;-65
2022/06/27 06:57:44;;;;;;;8.98;3.20;;;;;;;;;;4961347;28;20055;-65
2022/06/27 07:00:11;;;;;;;7.75;3.60;;;;;;;;;;4953299;28;20054;-65
2022/06/27 07:02:38;;;;;;;7.32;3.65;;;;;;;;;;4943324;28;20054;-65
2022/06/27 07:05:08;;;;;;;8.60;3.75;;;;;;;;;;4967249;28;20054;-64
2022/06/27 07:07:35;;;;;;;5.85;2.42;;;;;;;;;;4962367;28;20058;-65
2022/06/27 07:10:02;;;;;;;4.20;1.92;;;;;;;;;;4965804;28;20061;-65
2022/06/27 07:12:33;;;;;;;6.57;3.95;;;;;;;;;;4950803;28;20101;-64
2022/06/27 07:15:00;;;;;;;8.50;3.50;;;;;;;;;;4943544;28;20059;-64
2022/06/27 07:17:28;;;;;;;11.30;3.58;;;;;;;;;;4952358;28;20061;-64
2022/06/27 07:19:54;;;;;;;6.82;3.45;;;;;;;;;;4944451;28;20062;-64
2022/06/27 07:22:23;;;;;;;9.77;4.65;;;;;;;;;;4968007;28;20055;-64
2022/06/27 07:24:49;;;;;;;7.25;3.13;;;;;;;;;;4946658;28;20054;-65
2022/06/27 07:27:17;;;;;;;7.40;2.45;;;;;;;;;;4951707;28;20088;-65
2022/06/27 07:29:45;;;;;;;3.17;1.85;;;;;;;;;;4945458;28;20078;-65
2022/06/27 07:32:11;;;;;;;9.67;4.00;;;;;;;;;;4952549;28;20149;-65
2022/06/27 07:34:38;;;;;;;10.18;3.30;;;;;;;;;;4963240;28;20055;-65
2022/06/27 07:37:05;;;;;;;8.90;3.08;;;;;;;;;;4968785;28;20093;-64
2022/06/27 07:39:33;;;;;;;10.80;4.72;;;;;;;;;;4951734;28;20075;-65
2022/06/27 07:42:00;;;;;;;10.45;5.65;;;;;;;;;;4946642;28;20063;-64
2022/06/27 07:44:26;;;;;;;12.70;3.65;;;;;;;;;;4967402;28;20050;-64
2022/06/27 07:46:53;;;;;;;14.52;5.22;;;;;;;;;;4962853;28;20061;-65
2022/06/27 07:49:21;;;;;;;18.58;5.47;;;;;;;;;;4968241;28;20063;-65
2022/06/27 07:51:48;;;;;;;6.78;3.28;;;;;;;;;;4962477;28;20113;-65
2022/06/27 07:54:14;;;;;;;12.55;4.88;;;;;;;;;;4949663;28;20134;-64
2022/06/27 07:56:43;;;;;;;10.35;5.57;;;;;;;;;;4945614;28;20055;-65
2022/06/27 07:59:10;;;;;;;14.98;5.35;;;;;;;;;;4951371;28;20070;-64
2022/06/27 08:01:37;;;;;;;13.23;6.35;;;;;;;;;;4944409;28;20054;-65
2022/06/27 08:04:05;;;;;;;8.82;4.85;;;;;;;;;;4951409;28;20055;-65
2022/06/27 08:06:32;;;;;;;13.77;6.18;;;;;;;;;;4961823;28;20122;-65
2022/06/27 08:09:00;;;;;;;10.02;4.35;;;;;;;;;;4967448;28;20058;-65
2022/06/27 08:11:27;;;;;;;13.57;5.97;;;;;;;;;;4961249;28;20146;-65
2022/06/27 08:13:56;;;;;;;11.93;5.63;;;;;;;;;;4951507;28;20055;-65
2022/06/27 08:16:25;;;;;;;12.00;5.82;;;;;;;;;;4942354;28;20058;-65
2022/06/27 08:18:52;;;;;;;;;;;;;;;;;;4950692;28;20133;-65
2022/06/27 08:21:21;;;;;;;10.00;4.35;;;;;;;;;;4963350;28;19926;-65
2022/06/27 08:23:48;;;;;;;13.40;5.57;;;;;;;;;;4946401;28;20076;-66
2022/06/27 08:26:16;;;;;;;11.43;5.32;;;;;;;;;;4951322;28;20138;-66
2022/06/27 08:28:44;;;;;;;14.15;6.45;;;;;;;;;;4961054;28;20058;-65
2022/06/27 08:31:12;;;;;;;14.15;6.15;;;;;;;;;;4951621;28;20054;-65
2022/06/27 08:33:39;;;;;;;12.82;4.70;;;;;;;;;;4959009;28;20055;-65
2022/06/27 08:36:07;;;;;;;12.77;5.70;;;;;;;;;;4949139;28;20050;-66
2022/06/27 08:38:40;;;;;;;19.75;6.43;;;;;;;;;;4961459;28;20061;-65
2022/06/27 08:41:08;;;;;;;9.70;4.35;;;;;;;;;;4964000;28;20055;-65
2022/06/27 08:43:34;;;;;;;11.57;5.38;;;;;;;;;;4943543;28;20051;-65
2022/06/27 08:46:01;;;;;;;12.13;5.57;;;;;;;;;;4949602;28;20043;-65
2022/06/27 08:48:31;;;;;;;6.85;3.65;;;;;;;;;;4961654;28;20047;-65
2022/06/27 08:50:59;;;;;;;8.73;4.38;;;;;;;;;;4966150;28;20153;-66
2022/06/27 08:53:27;;;;;;;11.85;5.43;;;;;;;;;;4943013;28;20058;-66
2022/06/27 08:55:53;;;;;;;13.70;5.43;;;;;;;;;;4964249;28;20061;-66
2022/06/27 08:58:23;;;;;;;9.75;5.30;;;;;;;;;;4943623;28;20039;-65
2022/06/27 09:00:49;;;;;;;7.93;3.92;;;;;;;;;;4949771;28;20066;-65
2022/06/27 09:03:18;;;;;;;10.43;4.40;;;;;;;;;;4959886;28;20058;-65
2022/06/27 09:05:54;;;;;;;5.78;2.88;;;;;;;;;;4962484;28;20055;-65
2022/06/27 09:08:21;;;;;;;11.82;4.82;;;;;;;;;;4964427;28;20072;-65
2022/06/27 09:10:47;;;;;;;6.18;3.42;;;;;;;;;;4963900;28;20065;-65
2022/06/27 09:13:15;;;;;;;6.15;3.05;;;;;;;;;;4950725;28;20089;-66
2022/06/27 09:15:47;;;;;;;6.47;2.97;;;;;;;;;;4961771;28;20054;-65
2022/06/27 09:18:15;;;;;;;7.00;2.95;;;;;;;;;;4966498;28;20051;-65
2022/06/27 09:20:49;;;;;;;4.68;2.47;;;;;;;;;;4959623;28;20271;-65
2022/06/27 09:23:29;;;;;;;9.30;2.75;;;;;;;;;;4964738;28;20058;-67
2022/06/27 09:26:00;;;;;;;7.10;3.00;;;;;;;;;;4956689;28;20085;-65
2022/06/27 09:28:47;;;;;;;6.65;2.65;;;;;;;;;;4949585;28;20110;-65
2022/06/27 09:31:28;;;;;;;9.68;3.70;;;;;;;;;;4956115;28;20058;-65
2022/06/27 09:34:00;;;;;;;7.78;3.80;;;;;;;;;;4963049;28;20050;-65
2022/06/27 09:36:29;;;;;;;11.82;3.90;;;;;;;;;;4946536;28;20112;-65
2022/06/27 09:38:57;;;;;;;11.70;4.72;;;;;;;;;;4964017;28;20047;-65
2022/06/27 09:41:25;;;;;;;14.52;5.93;;;;;;;;;;4948610;28;20047;-66
2022/06/27 09:43:54;;;;;;;14.18;4.80;;;;;;;;;;4958046;28;20054;-66
2022/06/27 09:46:24;;;;;;;;;;;;;;;;;;4948236;28;20091;-66
2022/06/27 09:48:53;;;;;;;9.63;4.20;;;;;;;;;;4943017;28;19925;-65
2022/06/27 09:51:21;;;;;;;7.50;3.53;;;;;;;;;;4966508;28;20046;-65
2022/06/27 09:53:50;;;;;;;8.20;3.45;;;;;;;;;;4943150;28;20070;-66
2022/06/27 09:56:19;;;;;;;11.02;4.50;;;;;;;;;;4948437;28;20058;-66
2022/06/27 09:58:46;;;;;;;7.97;3.47;;;;;;;;;;4945609;28;20050;-66
2022/06/27 10:01:14;;;;;;;7.97;3.70;;;;;;;;;;4956850;28;20133;-66
2022/06/27 10:03:41;;;;;;;9.85;3.75;;;;;;;;;;4947945;28;20145;-66
2022/06/27 10:06:09;;;;;;;5.22;2.72;;;;;;;;;;4956923;28;20086;-65
2022/06/27 10:08:36;;;;;;;5.60;2.43;;;;;;;;;;4965193;28;20102;-65
2022/06/27 10:11:06;;;;;;;5.63;2.45;;;;;;;;;;4943876;28;20082;-65
2022/06/27 10:13:33;;;;;;;7.05;2.30;;;;;;;;;;4965419;28;20063;-66
2022/06/27 10:16:00;;;;;;;6.10;2.83;;;;;;;;;;4944974;28;20058;-65
2022/06/27 10:18:26;;;;;;;9.65;3.67;;;;;;;;;;4962863;28;20057;-65
2022/06/27 10:20:53;;;;;;;12.25;4.00;;;;;;;;;;4965840;28;20098;-65
2022/06/27 10:26:08;;;;;;;11.60;2.72;;;;;;;;;;4948814;28;20049;-65
2022/06/27 10:28:38;;;;;;;4.63;2.45;;;;;;;;;;4960391;28;20055;-65
2022/06/27 10:31:08;;;;;;;7.35;3.50;;;;;;;;;;4966299;28;20058;-66
2022/06/27 10:33:35;;;;;;;9.27;3.88;;;;;;;;;;4943124;28;20046;-65
2022/06/27 10:36:10;;;;;;;8.60;4.22;;;;;;;;;;4949142;28;20047;-66
2022/06/27 10:38:44;;;;;;;7.75;3.92;;;;;;;;;;4942386;28;20123;-66
2022/06/27 10:41:32;;;;;;;6.10;2.63;;;;;;;;;;4952815;28;20054;-66
2022/06/27 10:44:01;;;;;;;15.90;2.72;;;;;;;;;;4961208;28;20059;-64
2022/06/27 10:46:42;;;;;;;9.63;3.35;;;;;;;;;;4952113;28;20058;-65
2022/06/27 10:49:18;;;;;;;6.18;3.00;;;;;;;;;;4951911;28;20070;-65
2022/06/27 10:51:45;;;;;;;6.00;2.60;;;;;;;;;;4947700;28;20066;-65
2022/06/27 10:54:12;;;;;;;8.23;2.83;;;;;;;;;;4934180;29;20055;-65
2022/06/27 10:56:42;;;;;;;12.05;4.50;;;;;;;;;;4944202;28;20137;-65
2022/06/27 10:59:31;;;;;;;8.52;4.68;;;;;;;;;;4934127;29;20064;-65
2022/06/27 11:02:09;;;;;;;6.22;2.75;;;;;;;;;;4924248;28;20067;-65
2022/06/27 11:04:37;;;;;;;9.70;4.45;;;;;;;;;;4942125;28;20047;-65
2022/06/27 11:07:05;;;;;;;7.15;3.20;;;;;;;;;;4924341;29;20353;-64
2022/06/27 11:09:35;;;;;;;6.80;2.97;;;;;;;;;;4949073;29;20063;-65
2022/06/27 11:12:05;;;;;;;10.77;3.80;;;;;;;;;;4938500;28;20281;-65
2022/06/27 11:14:31;;;;;;;4.68;2.45;;;;;;;;;;4931412;29;20059;-67
2022/06/27 11:16:58;;;;;;;5.97;2.75;;;;;;;;;;4946837;28;20047;-65
2022/06/27 11:22:18;;;;;;;9.20;3.25;;;;;;;;;;4932988;29;20055;-64
2022/06/27 11:24:46;;;;;;;6.35;2.50;;;;;;;;;;4940710;28;20059;-65
2022/06/27 11:27:15;;;;;;;6.90;2.20;;;;;;;;;;4949365;29;20074;-64
2022/06/27 11:32:27;;;;;;;7.20;3.17;;;;;;;;;;4933276;29;20055;-66
2022/06/27 11:34:54;;;;;;;7.10;3.50;;;;;;;;;;4940751;28;20055;-65
2022/06/27 11:37:23;;;;;;;8.98;4.35;;;;;;;;;;4946596;29;20055;-65
2022/06/27 11:39:58;;;;;;;10.85;5.10;;;;;;;;;;4941923;29;20111;-65
2022/06/27 11:42:29;;;;;;;13.75;4.95;;;;;;;;;;4945935;29;20055;-65
2022/06/27 11:45:04;;;;;;;8.40;4.20;;;;;;;;;;4946111;29;20062;-65
2022/06/27 11:47:30;;;;;;;4.50;2.30;;;;;;;;;;4927091;29;20047;-64
2022/06/27 11:50:01;;;;;;;6.53;2.40;;;;;;;;;;4948728;28;20047;-65
2022/06/27 11:52:35;;;;;;;11.93;4.05;;;;;;;;;;4940476;28;20062;-65
2022/06/27 11:55:06;;;;;;;9.73;4.55;;;;;;;;;;4966574;28;20062;-65
2022/06/27 11:57:35;;;;;;;12.30;5.03;;;;;;;;;;4943462;28;20082;-65
2022/06/27 12:00:02;;;;;;;11.40;4.05;;;;;;;;;;4951187;28;20066;-64
2022/06/27 12:02:30;;;;;;;3.70;2.10;;;;;;;;;;4957074;28;20065;-65
2022/06/27 12:05:03;;;;;;;10.67;4.47;;;;;;;;;;4964074;28;20137;-66
2022/06/27 12:07:30;;;;;;;7.68;2.85;;;;;;;;;;4962561;28;20306;-66
2022/06/27 12:09:57;;;;;;;9.90;3.30;;;;;;;;;;4960433;28;20058;-65
2022/06/27 12:12:25;;;;;;;8.13;3.15;;;;;;;;;;4949819;28;20069;-65
2022/06/27 12:14:54;;;;;;;5.50;3.13;;;;;;;;;;4942793;28;20093;-66
2022/06/27 12:17:21;;;;;;;11.35;4.20;;;;;;;;;;4951927;28;20070;-65
2022/06/27 12:19:58;;;;;;;11.48;4.90;;;;;;;;;;4960070;28;20074;-65
2022/06/27 12:22:25;;;;;;;10.73;3.33;;;;;;;;;;4949969;28;20074;-65
2022/06/27 12:24:52;;;;;;;7.22;2.53;;;;;;;;;;4960477;28;20115;-66
2022/06/27 12:27:18;;;;;;;7.22;3.30;;;;;;;;;;4967830;28;20055;-65
2022/06/27 12:29:45;;;;;;;8.27;3.20;;;;;;;;;;4958459;28;20062;-65
2022/06/27 12:32:13;;;;;;;6.82;2.70;;;;;;;;;;4951027;28;20113;-64
2022/06/27 12:34:40;;;;;;;11.25;3.53;;;;;;;;;;4944820;28;20065;-65
2022/06/27 12:37:07;;;;;;;11.55;3.60;;;;;;;;;;4951441;28;20137;-64
2022/06/27 12:39:34;;;;;;;10.32;3.45;;;;;;;;;;4946705;28;20055;-65
2022/06/27 12:42:01;;;;;;;6.50;2.00;;;;;;;;;;4964053;28;20062;-66
2022/06/27 12:44:27;;;;;;;7.22;3.45;;;;;;;;;;4964750;28;20051;-65
2022/06/27 12:46:54;;;;;;;5.30;2.40;;;;;;;;;;4959330;28;20149;-65
2022/06/27 12:49:22;;;;;;;6.78;3.17;;;;;;;;;;4950978;28;20070;-65
2022/06/27 12:51:49;;;;;;;6.38;2.75;;;;;;;;;;4951111;28;20074;-66
2022/06/27 12:54:15;;;;;;;11.70;4.13;;;;;;;;;;4963075;28;20090;-65
2022/06/27 12:56:42;;;;;;;5.40;2.55;;;;;;;;;;4943607;28;20059;-65
2022/06/27 12:59:09;;;;;;;7.80;3.20;;;;;;;;;;4950482;28;20121;-65
2022/06/27 13:01:35;;;;;;;11.07;4.05;;;;;;;;;;4944662;28;20054;-65
2022/06/27 13:04:02;;;;;;;8.35;3.17;;;;;;;;;;4959611;28;20061;-64
2022/06/27 13:06:30;;;;;;;11.45;2.97;;;;;;;;;;4943908;28;20062;-67
2022/06/27 13:08:57;;;;;;;5.07;2.10;;;;;;;;;;4949516;28;20050;-65
2022/06/27 13:11:24;;;;;;;4.03;1.90;;;;;;;;;;4939743;28;20087;-65
2022/06/27 13:13:50;;;;;;;5.22;1.77;;;;;;;;;;4966700;28;20113;-65
2022/06/27 13:16:17;;;;;;;6.95;1.70;;;;;;;;;;4948775;28;20058;-64
2022/06/27 13:18:44;;;;;;;4.57;1.90;;;;;;;;;;4940219;28;20065;-65
2022/06/27 13:21:10;;;;;;;4.40;1.80;;;;;;;;;;4950074;28;20113;-64
2022/06/27 13:23:38;;;;;;;3.78;1.45;;;;;;;;;;4941158;28;20057;-65
2022/06/27 13:26:05;;;;;;;4.88;1.45;;;;;;;;;;4966202;28;20066;-67
2022/06/27 13:28:32;;;;;;;4.75;1.65;;;;;;;;;;4939017;28;20138;-65
2022/06/27 13:30:58;;;;;;;4.50;1.55;;;;;;;;;;4949578;28;20121;-63
2022/06/27 13:33:25;;;;;;;4.05;1.40;;;;;;;;;;4958576;28;20142;-65
2022/06/27 13:35:52;;;;;;;5.03;1.30;;;;;;;;;;4963392;28;20066;-64
2022/06/27 13:38:18;;;;;;;4.13;1.40;;;;;;;;;;4950000;28;20047;-64
2022/06/27 13:40:46;;;;;;;5.43;2.13;;;;;;;;;;4940031;28;20070;-64
2022/06/27 13:43:13;;;;;;;5.78;2.33;;;;;;;;;;4965079;28;20054;-64
2022/06/27 13:45:40;;;;;;;7.63;2.15;;;;;;;;;;4941334;28;20141;-64
2022/06/27 13:48:08;;;;;;;5.47;2.15;;;;;;;;;;4963867;28;20054;-64
2022/06/27 13:50:35;;;;;;;5.97;1.63;;;;;;;;;;4938861;28;20102;-65
2022/06/27 13:53:03;;;;;;;5.43;1.20;;;;;;;;;;4948405;28;20117;-64
2022/06/27 13:55:29;;;;;;;3.42;1.20;;;;;;;;;;4949497;28;20146;-64
2022/06/27 13:57:57;;;;;;;9.10;1.20;;;;;;;;;;4941185;28;20046;-63
2022/06/27 14:00:24;;;;;;;4.60;1.40;;;;;;;;;;4964704;28;20045;-63
2022/06/27 14:02:51;;;;;;;3.80;1.42;;;;;;;;;;4939814;28;20054;-63
2022/06/27 14:05:17;;;;;;;5.28;1.10;;;;;;;;;;4962665;28;20101;-64
2022/06/27 14:07:45;;;;;;;7.00;1.40;;;;;;;;;;4954900;28;20109;-62
2022/06/27 14:10:14;;;;;;;4.20;1.30;;;;;;;;;;4949685;28;20054;-63
2022/06/27 14:12:40;;;;;;;;;;;;;;;;;;4943631;28;20050;-63
2022/06/27 14:15:09;;;;;;;5.32;1.13;;;;;;;;;;4948523;28;19968;-64
2022/06/27 14:17:36;;;;;;;5.00;1.83;;;;;;;;;;4969703;28;20066;-68
2022/06/27 14:20:03;;;;;;;2.95;1.00;;;;;;;;;;4960926;28;20117;-64
2022/06/27 14:22:29;;;;;;;5.82;1.40;;;;;;;;;;4953067;28;20077;-67
2022/06/27 14:24:56;;;;;;;3.50;1.48;;;;;;;;;;4946454;28;20064;-64
2022/06/27 14:27:22;;;;;;;4.20;1.73;;;;;;;;;;4966958;28;20415;-63
2022/06/27 14:29:49;;;;;;;4.57;1.30;;;;;;;;;;4947581;28;20062;-62
2022/06/27 14:32:17;;;;;;;3.92;1.30;;;;;;;;;;4952245;28;20055;-65
2022/06/27 14:34:44;;;;;;;2.65;1.05;;;;;;;;;;4953102;28;20065;-63
2022/06/27 14:37:10;;;;;;;4.28;1.15;;;;;;;;;;4970123;28;20059;-62
2022/06/27 14:39:37;;;;;;;4.40;1.23;;;;;;;;;;4961935;28;20835;-64
2022/06/27 14:42:04;;;;;;;2.88;1.10;;;;;;;;;;4952021;28;20058;-64
2022/06/27 14:44:32;;;;;;;4.80;1.30;;;;;;;;;;4964677;28;20082;-62
2022/06/27 14:46:58;;;;;;;4.80;1.35;;;;;;;;;;4950378;28;20058;-62
2022/06/27 14:49:26;;;;;;;3.50;1.38;;;;;;;;;;4967685;28;20077;-66
2022/06/27 14:51:53;;;;;;;6.65;1.45;;;;;;;;;;4945010;28;20066;-62
2022/06/27 14:54:20;;;;;;;4.80;1.27;;;;;;;;;;4951159;28;20110;-64